Aérodrome :
LOGIN :

S'inscrire | Disclaimer

   EN    FR    IT 

 










Légende :    VFR   VFR Marginal   IFR   IFR Intensif   IFR Très Intensif
Visi : 
Plafond : 
>= 8 km
>= 3000ft
5 à 8 km
1000 à 3000 ft
1500m à 5 km
500 à 1000 ft
800 à 1500m
200 à 500 ft
< 800m
< 200 ft
Symboles :   Orages  Brouillard  Fortes neiges  Fortes précipitations  Vent > 20 kt
SIGMETs :   Divers  Orages  Givrage  Turbulence  Onde Orograph.  Cendres Volcan.







- Altitude de l'aérodrome : 461 ft
- Code IATA : WIE


ETOU - Wiesbaden Army

DERNIER METAR :
  • 220956Z AUTO 33007KT 9999 OVC022 13/08 A3011 RMK AO2 CIG 021 RWY07 SLP198 T01280075 $

METARs EXPIRÉS :
  • 220936Z AUTO 32011KT 9999 OVC020 12/08 A3011 RMK AO2 SLP199 $
  • 220856Z AUTO 34008KT 9999 OVC019 12/08 A3010 RMK AO2 CIG 016 RWY07 SLP196 T01210078 52012 $
  • 220756Z AUTO 33007KT 9999 OVC018 13/09 A3008 RMK AO2 SLP188 T01250088 $

TAF TAF ETOU
Valide du 22 à 03h jusqu'au 23 à 09h UTC


220305Z 2203/2309 30009KT 8000 -SHRA OVC013 620802 QNH3002INS
BECMG 2204/2205 30009KT 9999 NSW BKN014 OVC020 620802 QNH3003INS
BECMG 2206/2207 30009KT 9999 BKN020 QNH3006INS
BECMG 2210/2211 31009KT 9999 FEW035 QNH3010INS
BECMG 2305/2306 VRB06KT 9999 SCT035 BKN060 QNH3013INS TX17/2215Z TN10/2204Z
Pas de NOTAMs connus pour ce terrain.



MET'MAP, la Météo Aéronautique d'un coup d'oeil ! - Copyright ORBIFLY Décembre 2007 - Disclaimer

ORBIFLY MET'MAP TEAM :

Programmation & Développement : Alexandra Zaïnal
Conception & Développement : Baudouin d'Aumeries
Co-Programmation & Développement : Marc-Olivier Méhu
Soutien technique & logistique : Manuel Goepfert

Contact : metmap@orbifly.com




SOURCES & CREDITS :

   NOAA